sensor_id;sensor_type;location;lat;lon;timestamp;pressure;altitude;pressure_sealevel;temperature;humidity
32875;BME280;40468;42.128;24.750;2022-10-26T00:00:32;99926.97;;;18.03;45.72
32875;BME280;40468;42.128;24.750;2022-10-26T00:02:03;99926.97;;;18.03;45.64
32875;BME280;40468;42.128;24.750;2022-10-26T00:03:36;99929.28;;;18.07;45.60
32875;BME280;40468;42.128;24.750;2022-10-26T00:05:08;99928.19;;;18.10;45.73
32875;BME280;40468;42.128;24.750;2022-10-26T00:06:40;99934.19;;;18.12;45.63
32875;BME280;40468;42.128;24.750;2022-10-26T00:08:12;99931.78;;;18.09;45.72
32875;BME280;40468;42.128;24.750;2022-10-26T00:09:43;99935.78;;;18.14;45.67
32875;BME280;40468;42.128;24.750;2022-10-26T00:11:15;99936.63;;;18.15;45.55
32875;BME280;40468;42.128;24.750;2022-10-26T00:12:48;99935.78;;;18.14;45.53
32875;BME280;40468;42.128;24.750;2022-10-26T00:14:22;99926.53;;;18.09;45.42
32875;BME280;40468;42.128;24.750;2022-10-26T00:15:54;99930.38;;;18.16;45.50
32875;BME280;40468;42.128;24.750;2022-10-26T00:17:25;99930.50;;;18.14;45.38
32875;BME280;40468;42.128;24.750;2022-10-26T00:18:57;99933.88;;;18.16;45.56
32875;BME280;40468;42.128;24.750;2022-10-26T00:20:31;99934.72;;;18.17;45.54
32875;BME280;40468;42.128;24.750;2022-10-26T00:22:03;99941.88;;;18.15;45.45
32875;BME280;40468;42.128;24.750;2022-10-26T00:23:35;99921.72;;;18.03;45.49
32875;BME280;40468;42.128;24.750;2022-10-26T00:25:08;99950.41;;;18.18;45.39
32875;BME280;40468;42.128;24.750;2022-10-26T00:26:40;99941.88;;;18.15;45.39
32875;BME280;40468;42.128;24.750;2022-10-26T00:28:11;99939.25;;;18.15;45.52
32875;BME280;40468;42.128;24.750;2022-10-26T00:29:44;99938.41;;;18.14;45.58
32875;BME280;40468;42.128;24.750;2022-10-26T00:31:16;99937.69;;;18.12;45.40
32875;BME280;40468;42.128;24.750;2022-10-26T00:32:48;99936.00;;;18.11;45.35
32875;BME280;40468;42.128;24.750;2022-10-26T00:34:19;99938.03;;;18.08;45.29
32875;BME280;40468;42.128;24.750;2022-10-26T00:35:52;99929.50;;;18.04;45.44
32875;BME280;40468;42.128;24.750;2022-10-26T00:37:24;99927.81;;;18.03;45.62
32875;BME280;40468;42.128;24.750;2022-10-26T00:38:57;99933.94;;;18.04;45.58
32875;BME280;40468;42.128;24.750;2022-10-26T00:40:29;99933.94;;;18.04;45.49
32875;BME280;40468;42.128;24.750;2022-10-26T00:42:01;99928.03;;;18.00;45.23
32875;BME280;40468;42.128;24.750;2022-10-26T00:43:37;99930.59;;;18.02;45.43
32875;BME280;40468;42.128;24.750;2022-10-26T00:45:18;99932.34;;;18.01;45.33
32875;BME280;40468;42.128;24.750;2022-10-26T00:46:51;99936.91;;;17.99;45.34
32875;BME280;40468;42.128;24.750;2022-10-26T00:48:26;99939.44;;;18.01;45.14
32875;BME280;40468;42.128;24.750;2022-10-26T00:50:03;99928.41;;;17.95;45.04
32875;BME280;40468;42.128;24.750;2022-10-26T00:51:38;99935.94;;;18.00;44.98
32875;BME280;40468;42.128;24.750;2022-10-26T00:53:11;99941.97;;;18.02;45.00
32875;BME280;40468;42.128;24.750;2022-10-26T00:54:42;99942.78;;;18.03;45.00
32875;BME280;40468;42.128;24.750;2022-10-26T00:56:15;99943.53;;;18.05;44.87
32875;BME280;40468;42.128;24.750;2022-10-26T00:57:48;99936.34;;;18.07;44.77
32875;BME280;40468;42.128;24.750;2022-10-26T00:59:22;99939.84;;;18.07;44.67
32875;BME280;40468;42.128;24.750;2022-10-26T01:00:56;99933.59;;;18.08;44.85
32875;BME280;40468;42.128;24.750;2022-10-26T01:02:27;99932.75;;;18.08;45.05
32875;BME280;40468;42.128;24.750;2022-10-26T01:03:59;99931.78;;;18.09;44.71
32875;BME280;40468;42.128;24.750;2022-10-26T01:05:31;99928.84;;;18.13;44.85
32875;BME280;40468;42.128;24.750;2022-10-26T01:07:04;99934.94;;;18.14;44.91
32875;BME280;40468;42.128;24.750;2022-10-26T01:08:37;99925.34;;;18.13;45.14
32875;BME280;40468;42.128;24.750;2022-10-26T01:10:09;99928.72;;;18.15;45.05
32875;BME280;40468;42.128;24.750;2022-10-26T01:11:41;99926.81;;;18.17;44.99
32875;BME280;40468;42.128;24.750;2022-10-26T01:13:14;99931.94;;;18.18;44.92
32875;BME280;40468;42.128;24.750;2022-10-26T01:14:48;99934.72;;;18.17;44.93
32875;BME280;40468;42.128;24.750;2022-10-26T01:16:38;99938.09;;;18.19;45.05
32875;BME280;40468;42.128;24.750;2022-10-26T01:18:20;99937.84;;;18.22;44.89
32875;BME280;40468;42.128;24.750;2022-10-26T01:20:24;99943.13;;;18.22;45.05
32875;BME280;40468;42.128;24.750;2022-10-26T01:22:02;99942.25;;;18.22;45.05
32875;BME280;40468;42.128;24.750;2022-10-26T01:23:49;99936.53;;;18.28;44.83
32875;BME280;40468;42.128;24.750;2022-10-26T01:25:40;99935.09;;;18.24;44.97
32875;BME280;40468;42.128;24.750;2022-10-26T01:27:23;99938.47;;;18.26;45.10
32875;BME280;40468;42.128;24.750;2022-10-26T01:29:13;99939.28;;;18.26;45.14
32875;BME280;40468;42.128;24.750;2022-10-26T01:30:53;99935.69;;;18.27;45.29
32875;BME280;40468;42.128;24.750;2022-10-26T01:32:30;99936.53;;;18.28;45.24
32875;BME280;40468;42.128;24.750;2022-10-26T01:34:05;99929.25;;;18.31;45.24
32875;BME280;40468;42.128;24.750;2022-10-26T01:35:45;99936.09;;;18.34;45.14
32875;BME280;40468;42.128;24.750;2022-10-26T01:37:24;99933.31;;;18.35;45.22
32875;BME280;40468;42.128;24.750;2022-10-26T01:39:01;99930.47;;;18.38;45.40
32875;BME280;40468;42.128;24.750;2022-10-26T01:40:40;99933.81;;;18.40;45.50
32875;BME280;40468;42.128;24.750;2022-10-26T01:42:14;99937.91;;;18.45;45.42
32875;BME280;40468;42.128;24.750;2022-10-26T01:43:50;99932.63;;;18.45;45.31
32875;BME280;40468;42.128;24.750;2022-10-26T01:45:25;99930.72;;;18.47;45.20
32875;BME280;40468;42.128;24.750;2022-10-26T01:47:00;99934.09;;;18.49;45.02
32875;BME280;40468;42.128;24.750;2022-10-26T01:48:35;99927.13;;;18.48;45.09
32875;BME280;40468;42.128;24.750;2022-10-26T01:50:08;99936.56;;;18.39;45.17
32875;BME280;40468;42.128;24.750;2022-10-26T01:51:42;99931.28;;;18.39;45.12
32875;BME280;40468;42.128;24.750;2022-10-26T01:53:15;99930.97;;;18.44;44.89
32875;BME280;40468;42.128;24.750;2022-10-26T01:54:47;99926.50;;;18.44;45.03
32875;BME280;40468;42.128;24.750;2022-10-26T01:56:22;99927.13;;;18.48;44.92
32875;BME280;40468;42.128;24.750;2022-10-26T01:58:00;99921.75;;;18.49;45.00
32875;BME280;40468;42.128;24.750;2022-10-26T02:03:51;99927.25;;;18.46;44.67
32875;BME280;40468;42.128;24.750;2022-10-26T02:05:33;99919.22;;;18.48;44.85
32875;BME280;40468;42.128;24.750;2022-10-26T02:07:15;99916.56;;;18.48;44.73
32875;BME280;40468;42.128;24.750;2022-10-26T02:08:57;99915.50;;;18.50;44.43
32875;BME280;40468;42.128;24.750;2022-10-26T02:10:42;99920.69;;;18.52;44.62
32875;BME280;40468;42.128;24.750;2022-10-26T02:12:23;99915.50;;;18.50;44.60
32875;BME280;40468;42.128;24.750;2022-10-26T02:14:02;99922.44;;;18.51;44.67
32875;BME280;40468;42.128;24.750;2022-10-26T02:15:42;99919.94;;;18.50;44.74
32875;BME280;40468;42.128;24.750;2022-10-26T02:17:22;99922.56;;;18.50;44.65
32875;BME280;40468;42.128;24.750;2022-10-26T02:19:04;99926.03;;;18.50;44.57
32875;BME280;40468;42.128;24.750;2022-10-26T02:20:41;99921.84;;;18.48;44.52
32875;BME280;40468;42.128;24.750;2022-10-26T02:22:17;99935.75;;;18.50;44.62
32875;BME280;40468;42.128;24.750;2022-10-26T02:23:51;99923.66;;;18.47;44.56
32875;BME280;40468;42.128;24.750;2022-10-26T02:25:28;99927.00;;;18.49;44.60
32875;BME280;40468;42.128;24.750;2022-10-26T02:27:03;99935.75;;;18.50;44.55
32875;BME280;40468;42.128;24.750;2022-10-26T02:28:40;99929.53;;;18.51;44.68
32875;BME280;40468;42.128;24.750;2022-10-26T02:30:13;99928.69;;;18.50;44.77
32875;BME280;40468;42.128;24.750;2022-10-26T02:31:46;99926.66;;;18.54;44.89
32875;BME280;40468;42.128;24.750;2022-10-26T02:33:20;99932.88;;;18.53;44.74
32875;BME280;40468;42.128;24.750;2022-10-26T02:34:55;99930.84;;;18.56;44.79
32875;BME280;40468;42.128;24.750;2022-10-26T02:36:29;99929.69;;;18.60;44.71
32875;BME280;40468;42.128;24.750;2022-10-26T02:38:05;99930.28;;;18.64;44.71
32875;BME280;40468;42.128;24.750;2022-10-26T02:39:39;99930.03;;;18.67;44.71
32875;BME280;40468;42.128;24.750;2022-10-26T02:41:12;99925.84;;;18.64;44.49
32875;BME280;40468;42.128;24.750;2022-10-26T02:42:45;99933.63;;;18.66;44.46
32875;BME280;40468;42.128;24.750;2022-10-26T02:44:21;99934.34;;;18.68;44.45
32875;BME280;40468;42.128;24.750;2022-10-26T02:45:58;99930.75;;;18.69;44.46
32875;BME280;40468;42.128;24.750;2022-10-26T02:47:33;99933.28;;;18.71;44.31
32875;BME280;40468;42.128;24.750;2022-10-26T02:49:05;99944.56;;;18.73;44.22
32875;BME280;40468;42.128;24.750;2022-10-26T02:50:44;99936.53;;;18.74;44.08
32875;BME280;40468;42.128;24.750;2022-10-26T02:52:22;99937.50;;;18.73;44.18
32875;BME280;40468;42.128;24.750;2022-10-26T02:53:59;99938.34;;;18.74;44.05
32875;BME280;40468;42.128;24.750;2022-10-26T02:55:36;99917.31;;;18.61;44.25
32875;BME280;40468;42.128;24.750;2022-10-26T02:57:13;99933.06;;;18.74;44.10
32875;BME280;40468;42.128;24.750;2022-10-26T02:58:49;99938.34;;;18.74;44.04
32875;BME280;40468;42.128;24.750;2022-10-26T03:00:23;99941.94;;;18.73;44.15
32875;BME280;40468;42.128;24.750;2022-10-26T03:01:55;99940.34;;;18.70;44.17
32875;BME280;40468;42.128;24.750;2022-10-26T03:03:28;99946.47;;;18.71;44.31
32875;BME280;40468;42.128;24.750;2022-10-26T03:05:08;99940.22;;;18.72;44.19
32875;BME280;40468;42.128;24.750;2022-10-26T03:06:51;99939.38;;;18.71;44.16
32875;BME280;40468;42.128;24.750;2022-10-26T03:08:22;99943.69;;;18.72;44.21
32875;BME280;40468;42.128;24.750;2022-10-26T03:09:54;99937.59;;;18.72;44.38
32875;BME280;40468;42.128;24.750;2022-10-26T03:11:25;99941.94;;;18.73;44.30
32875;BME280;40468;42.128;24.750;2022-10-26T03:12:57;99934.00;;;18.73;44.16
32875;BME280;40468;42.128;24.750;2022-10-26T03:14:28;99933.81;;;18.76;44.42
32875;BME280;40468;42.128;24.750;2022-10-26T03:16:00;99937.28;;;18.76;44.19
32875;BME280;40468;42.128;24.750;2022-10-26T03:17:32;99937.88;;;18.80;44.31
32875;BME280;40468;42.128;24.750;2022-10-26T03:19:02;99940.50;;;18.80;44.26
32875;BME280;40468;42.128;24.750;2022-10-26T03:20:35;99948.31;;;18.81;44.04
32875;BME280;40468;42.128;24.750;2022-10-26T03:22:08;99946.53;;;18.82;44.11
32875;BME280;40468;42.128;24.750;2022-10-26T03:23:40;99949.25;;;18.80;43.77
32875;BME280;40468;42.128;24.750;2022-10-26T03:25:12;99944.97;;;18.79;43.59
32875;BME280;40468;42.128;24.750;2022-10-26T03:26:44;99943.38;;;18.77;43.37
32875;BME280;40468;42.128;24.750;2022-10-26T03:28:16;99941.59;;;18.77;43.37
32875;BME280;40468;42.128;24.750;2022-10-26T03:29:47;99947.09;;;18.74;43.29
32875;BME280;40468;42.128;24.750;2022-10-26T03:31:19;99947.84;;;18.76;43.25
32875;BME280;40468;42.128;24.750;2022-10-26T03:32:50;99940.66;;;18.78;43.25
32875;BME280;40468;42.128;24.750;2022-10-26T03:34:22;99934.63;;;18.76;43.02
32875;BME280;40468;42.128;24.750;2022-10-26T03:35:54;99942.31;;;18.79;43.05
32875;BME280;40468;42.128;24.750;2022-10-26T03:37:28;99940.50;;;18.80;42.96
32875;BME280;40468;42.128;24.750;2022-10-26T03:39:00;99948.06;;;18.73;43.22
32875;BME280;40468;42.128;24.750;2022-10-26T03:40:32;99943.00;;;18.70;43.31
32875;BME280;40468;42.128;24.750;2022-10-26T03:42:05;99948.13;;;18.72;43.19
32875;BME280;40468;42.128;24.750;2022-10-26T03:43:37;99955.84;;;18.75;43.27
32875;BME280;40468;42.128;24.750;2022-10-26T03:45:09;99954.25;;;18.72;43.14
32875;BME280;40468;42.128;24.750;2022-10-26T03:46:40;99957.66;;;18.74;43.00
32875;BME280;40468;42.128;24.750;2022-10-26T03:48:12;99957.66;;;18.74;43.15
32875;BME280;40468;42.128;24.750;2022-10-26T03:49:44;99961.25;;;18.73;43.21
32875;BME280;40468;42.128;24.750;2022-10-26T03:51:16;99963.91;;;18.73;43.02
32875;BME280;40468;42.128;24.750;2022-10-26T03:52:49;99959.75;;;18.69;43.35
32875;BME280;40468;42.128;24.750;2022-10-26T03:54:21;99972.25;;;18.67;43.08
32875;BME280;40468;42.128;24.750;2022-10-26T03:55:53;99971.41;;;18.67;43.16
32875;BME280;40468;42.128;24.750;2022-10-26T03:57:24;99973.19;;;18.66;43.23
32875;BME280;40468;42.128;24.750;2022-10-26T03:58:56;99971.50;;;18.65;43.30
32875;BME280;40468;42.128;24.750;2022-10-26T04:00:28;99972.59;;;18.62;43.41
32875;BME280;40468;42.128;24.750;2022-10-26T04:02:00;99973.66;;;18.60;43.28
32875;BME280;40468;42.128;24.750;2022-10-26T04:03:32;99979.91;;;18.59;43.35
32875;BME280;40468;42.128;24.750;2022-10-26T04:05:05;99983.72;;;18.55;43.46
32875;BME280;40468;42.128;24.750;2022-10-26T04:06:36;99982.25;;;18.51;43.66
32875;BME280;40468;42.128;24.750;2022-10-26T04:08:09;99986.84;;;18.49;43.66
32875;BME280;40468;42.128;24.750;2022-10-26T04:09:41;99984.19;;;18.49;43.62
32875;BME280;40468;42.128;24.750;2022-10-26T04:11:11;99980.94;;;18.45;43.62
32875;BME280;40468;42.128;24.750;2022-10-26T04:12:43;99981.88;;;18.44;43.86
32875;BME280;40468;42.128;24.750;2022-10-26T04:14:15;99982.22;;;18.39;43.90
32875;BME280;40468;42.128;24.750;2022-10-26T04:15:47;99983.31;;;18.37;43.78
32875;BME280;40468;42.128;24.750;2022-10-26T04:17:19;99994.78;;;18.36;43.89
32875;BME280;40468;42.128;24.750;2022-10-26T04:18:51;99996.72;;;18.34;43.74
32875;BME280;40468;42.128;24.750;2022-10-26T04:20:23;100000.31;;;18.33;43.92
32875;BME280;40468;42.128;24.750;2022-10-26T04:21:55;99988.41;;;18.27;43.93
32875;BME280;40468;42.128;24.750;2022-10-26T04:23:28;99989.59;;;18.23;43.86
32875;BME280;40468;42.128;24.750;2022-10-26T04:25:00;99990.06;;;18.17;43.95
32875;BME280;40468;42.128;24.750;2022-10-26T04:26:32;99989.69;;;18.10;43.96
32875;BME280;40468;42.128;24.750;2022-10-26T04:28:04;99991.91;;;18.04;44.10
32875;BME280;40468;42.128;24.750;2022-10-26T04:29:36;99990.16;;;17.91;44.34
32875;BME280;40468;42.128;24.750;2022-10-26T04:31:07;100004.16;;;17.92;44.19
32875;BME280;40468;42.128;24.750;2022-10-26T04:32:39;99996.16;;;17.93;44.29
32875;BME280;40468;42.128;24.750;2022-10-26T04:34:11;100002.78;;;17.99;44.45
32875;BME280;40468;42.128;24.750;2022-10-26T04:35:43;100008.78;;;18.01;44.64
32875;BME280;40468;42.128;24.750;2022-10-26T04:37:15;100000.38;;;17.96;44.51
32875;BME280;40468;42.128;24.750;2022-10-26T04:38:49;100000.16;;;17.99;44.73
32875;BME280;40468;42.128;24.750;2022-10-26T04:40:20;100007.22;;;17.99;45.00
32875;BME280;40468;42.128;24.750;2022-10-26T04:41:52;100008.06;;;17.99;45.12
32875;BME280;40468;42.128;24.750;2022-10-26T04:43:24;100008.16;;;17.98;45.13
32875;BME280;40468;42.128;24.750;2022-10-26T04:44:56;100010.78;;;17.98;45.18
32875;BME280;40468;42.128;24.750;2022-10-26T04:46:28;100016.19;;;17.96;45.07
32875;BME280;40468;42.128;24.750;2022-10-26T04:48:02;100018.00;;;17.95;44.98
32875;BME280;40468;42.128;24.750;2022-10-26T04:49:34;100020.63;;;17.95;44.83
32875;BME280;40468;42.128;24.750;2022-10-26T04:51:06;100021.56;;;17.94;44.90
32875;BME280;40468;42.128;24.750;2022-10-26T04:52:39;100018.09;;;17.94;44.91
32875;BME280;40468;42.128;24.750;2022-10-26T04:54:12;100021.03;;;17.89;45.07
32875;BME280;40468;42.128;24.750;2022-10-26T04:55:44;100026.53;;;17.86;45.44
32875;BME280;40468;42.128;24.750;2022-10-26T04:57:16;100030.03;;;17.87;45.45
32875;BME280;40468;42.128;24.750;2022-10-26T04:58:48;100033.50;;;17.87;45.59
32875;BME280;40468;42.128;24.750;2022-10-26T05:00:20;100031.69;;;17.88;45.59
32875;BME280;40468;42.128;24.750;2022-10-26T05:01:52;100032.53;;;17.88;45.78
32875;BME280;40468;42.128;24.750;2022-10-26T05:03:24;100037.50;;;17.93;45.89
32875;BME280;40468;42.128;24.750;2022-10-26T05:04:55;100037.50;;;17.93;45.79
32875;BME280;40468;42.128;24.750;2022-10-26T05:06:26;100033.06;;;17.93;45.80
32875;BME280;40468;42.128;24.750;2022-10-26T05:07:59;100029.81;;;17.90;46.15
32875;BME280;40468;42.128;24.750;2022-10-26T05:09:32;100036.44;;;17.95;46.18
32875;BME280;40468;42.128;24.750;2022-10-26T05:11:04;100029.69;;;17.91;46.35
32875;BME280;40468;42.128;24.750;2022-10-26T05:12:36;100028.84;;;17.91;46.38
32875;BME280;40468;42.128;24.750;2022-10-26T05:14:08;100031.16;;;17.95;46.25
32875;BME280;40468;42.128;24.750;2022-10-26T05:15:40;100038.09;;;17.96;46.33
32875;BME280;40468;42.128;24.750;2022-10-26T05:17:12;100037.88;;;18.00;46.24
32875;BME280;40468;42.128;24.750;2022-10-26T05:18:46;100036.00;;;18.02;46.25
32875;BME280;40468;42.128;24.750;2022-10-26T05:20:18;100033.97;;;18.05;46.04
32875;BME280;40468;42.128;24.750;2022-10-26T05:21:50;100031.34;;;18.05;46.26
32875;BME280;40468;42.128;24.750;2022-10-26T05:23:23;100045.88;;;18.11;46.29
32875;BME280;40468;42.128;24.750;2022-10-26T05:24:56;100047.22;;;18.16;46.24
32875;BME280;40468;42.128;24.750;2022-10-26T05:26:28;100052.47;;;18.16;46.06
32875;BME280;40468;42.128;24.750;2022-10-26T05:28:01;100050.16;;;18.12;46.04
32875;BME280;40468;42.128;24.750;2022-10-26T05:29:34;100058.75;;;18.27;46.10
32875;BME280;40468;42.128;24.750;2022-10-26T05:31:06;100058.44;;;18.31;45.83
32875;BME280;40468;42.128;24.750;2022-10-26T05:32:38;100060.25;;;18.42;45.86
32875;BME280;40468;42.128;24.750;2022-10-26T05:34:10;100057.28;;;18.47;45.78
32875;BME280;40468;42.128;24.750;2022-10-26T05:35:42;100065.13;;;18.59;45.62
32875;BME280;40468;42.128;24.750;2022-10-26T05:37:14;100062.88;;;18.66;45.64
32875;BME280;40468;42.128;24.750;2022-10-26T05:38:46;100064.97;;;18.74;45.60
32875;BME280;40468;42.128;24.750;2022-10-26T05:40:19;100070.16;;;18.86;45.35
32875;BME280;40468;42.128;24.750;2022-10-26T05:41:52;100067.94;;;18.93;45.32
32875;BME280;40468;42.128;24.750;2022-10-26T05:43:24;100068.28;;;19.00;45.25
32875;BME280;40468;42.128;24.750;2022-10-26T05:44:56;100067.81;;;19.06;45.16
32875;BME280;40468;42.128;24.750;2022-10-26T05:46:28;100073.47;;;19.13;45.11
32875;BME280;40468;42.128;24.750;2022-10-26T05:48:00;100070.84;;;19.24;45.00
32875;BME280;40468;42.128;24.750;2022-10-26T05:49:32;100072.06;;;19.42;44.76
32875;BME280;40468;42.128;24.750;2022-10-26T05:51:04;100070.50;;;19.62;44.54
32875;BME280;40468;42.128;24.750;2022-10-26T05:52:39;100071.50;;;19.72;44.14
32875;BME280;40468;42.128;24.750;2022-10-26T05:54:12;100083.03;;;19.83;44.00
32875;BME280;40468;42.128;24.750;2022-10-26T05:55:46;100083.28;;;19.91;43.79
32875;BME280;40468;42.128;24.750;2022-10-26T05:57:19;100071.56;;;20.05;43.67
32875;BME280;40468;42.128;24.750;2022-10-26T05:58:51;100077.19;;;20.22;43.50
32875;BME280;40468;42.128;24.750;2022-10-26T06:00:26;100081.31;;;20.48;43.15
32875;BME280;40468;42.128;24.750;2022-10-26T06:02:04;100079.22;;;20.74;42.75
32875;BME280;40468;42.128;24.750;2022-10-26T06:03:49;100080.16;;;21.14;42.42
32875;BME280;40468;42.128;24.750;2022-10-26T06:05:27;100080.03;;;21.68;41.30
32875;BME280;40468;42.128;24.750;2022-10-26T06:07:00;100081.88;;;22.27;40.13
32875;BME280;40468;42.128;24.750;2022-10-26T06:08:33;100086.81;;;22.80;39.46
32875;BME280;40468;42.128;24.750;2022-10-26T06:10:06;100098.34;;;23.37;38.47
32875;BME280;40468;42.128;24.750;2022-10-26T06:11:40;100095.31;;;23.97;37.42
32875;BME280;40468;42.128;24.750;2022-10-26T06:13:12;100086.31;;;24.54;36.74
32875;BME280;40468;42.128;24.750;2022-10-26T06:14:45;100100.66;;;25.14;35.80
32875;BME280;40468;42.128;24.750;2022-10-26T06:16:29;100105.22;;;25.82;34.89
32875;BME280;40468;42.128;24.750;2022-10-26T06:18:12;100096.28;;;26.50;34.18
32875;BME280;40468;42.128;24.750;2022-10-26T06:20:02;100098.94;;;27.24;33.40
32875;BME280;40468;42.128;24.750;2022-10-26T06:21:46;100102.31;;;27.82;32.21
32875;BME280;40468;42.128;24.750;2022-10-26T06:23:40;100103.16;;;28.45;31.58
32875;BME280;40468;42.128;24.750;2022-10-26T06:25:25;100103.16;;;28.91;30.84
32875;BME280;40468;42.128;24.750;2022-10-26T06:27:05;100110.09;;;29.38;30.36
32875;BME280;40468;42.128;24.750;2022-10-26T06:28:50;100104.94;;;29.81;29.56
32875;BME280;40468;42.128;24.750;2022-10-26T06:30:25;100111.47;;;30.23;28.45
32875;BME280;40468;42.128;24.750;2022-10-26T06:31:57;100106.94;;;30.45;27.98
32875;BME280;40468;42.128;24.750;2022-10-26T06:33:29;100104.25;;;30.66;27.82
32875;BME280;40468;42.128;24.750;2022-10-26T06:35:10;100110.59;;;31.01;27.41
32875;BME280;40468;42.128;24.750;2022-10-26T06:36:46;100110.28;;;31.39;26.90
32875;BME280;40468;42.128;24.750;2022-10-26T06:38:19;100120.63;;;31.77;26.66
32875;BME280;40468;42.128;24.750;2022-10-26T06:39:53;100114.34;;;32.05;25.88
32875;BME280;40468;42.128;24.750;2022-10-26T06:41:27;100111.56;;;32.39;25.45
32875;BME280;40468;42.128;24.750;2022-10-26T06:43:03;100113.25;;;32.47;25.01
32875;BME280;40468;42.128;24.750;2022-10-26T06:44:39;100108.94;;;32.73;24.86
32875;BME280;40468;42.128;24.750;2022-10-26T06:46:19;100109.34;;;32.96;24.63
32875;BME280;40468;42.128;24.750;2022-10-26T06:47:58;100112.28;;;33.28;24.35
32875;BME280;40468;42.128;24.750;2022-10-26T06:49:35;100113.66;;;33.57;23.92
32875;BME280;40468;42.128;24.750;2022-10-26T06:51:13;100117.56;;;33.81;23.54
32875;BME280;40468;42.128;24.750;2022-10-26T06:52:50;100116.44;;;34.02;23.10
32875;BME280;40468;42.128;24.750;2022-10-26T06:54:32;100119.47;;;34.26;22.79
32875;BME280;40468;42.128;24.750;2022-10-26T06:56:13;100118.28;;;34.47;22.74
32875;BME280;40468;42.128;24.750;2022-10-26T06:57:47;100117.91;;;34.75;22.46
32875;BME280;40468;42.128;24.750;2022-10-26T06:59:30;100127.16;;;35.17;22.16
32875;BME280;40468;42.128;24.750;2022-10-26T07:01:03;100125.38;;;35.48;21.45
32875;BME280;40468;42.128;24.750;2022-10-26T07:02:35;100120.78;;;35.48;21.62
32875;BME280;40468;42.128;24.750;2022-10-26T07:04:07;100118.88;;;35.74;21.11
32875;BME280;40468;42.128;24.750;2022-10-26T07:05:39;100125.66;;;35.83;20.68
32875;BME280;40468;42.128;24.750;2022-10-26T07:07:13;100108.78;;;35.81;20.68
32875;BME280;40468;42.128;24.750;2022-10-26T07:08:46;100127.75;;;35.81;20.39
32875;BME280;40468;42.128;24.750;2022-10-26T07:10:18;100115.66;;;35.65;20.47
32875;BME280;40468;42.128;24.750;2022-10-26T07:11:50;100123.97;;;35.64;20.73
32875;BME280;40468;42.128;24.750;2022-10-26T07:13:22;100119.16;;;35.84;20.81
32875;BME280;40468;42.128;24.750;2022-10-26T07:14:55;100119.91;;;35.91;20.20
32875;BME280;40468;42.128;24.750;2022-10-26T07:16:27;100127.66;;;35.88;20.33
32875;BME280;40468;42.128;24.750;2022-10-26T07:17:59;100124.88;;;35.94;20.29
32875;BME280;40468;42.128;24.750;2022-10-26T07:19:32;100131.38;;;36.23;20.39
32875;BME280;40468;42.128;24.750;2022-10-26T07:21:04;100133.72;;;36.50;19.93
32875;BME280;40468;42.128;24.750;2022-10-26T07:22:36;100128.28;;;36.80;19.77
32875;BME280;40468;42.128;24.750;2022-10-26T07:24:08;100131.63;;;37.06;19.15
32875;BME280;40468;42.128;24.750;2022-10-26T07:25:39;100135.44;;;37.17;19.12
32875;BME280;40468;42.128;24.750;2022-10-26T07:27:11;100127.16;;;37.47;19.05
32875;BME280;40468;42.128;24.750;2022-10-26T07:28:43;100134.47;;;37.46;18.78
32875;BME280;40468;42.128;24.750;2022-10-26T07:30:20;100134.81;;;37.38;18.73
32875;BME280;40468;42.128;24.750;2022-10-26T07:31:51;100132.09;;;37.15;18.36
32875;BME280;40468;42.128;24.750;2022-10-26T07:33:23;100132.63;;;36.70;18.70
32875;BME280;40468;42.128;24.750;2022-10-26T07:34:55;100132.47;;;36.53;18.96
32875;BME280;40468;42.128;24.750;2022-10-26T07:36:28;100137.22;;;36.69;19.00
32875;BME280;40468;42.128;24.750;2022-10-26T07:38:00;100121.41;;;36.66;19.32
32875;BME280;40468;42.128;24.750;2022-10-26T07:39:32;100128.88;;;36.94;19.10
32875;BME280;40468;42.128;24.750;2022-10-26T07:41:04;100134.00;;;37.14;18.87
32875;BME280;40468;42.128;24.750;2022-10-26T07:42:36;100135.91;;;37.14;18.48
32875;BME280;40468;42.128;24.750;2022-10-26T07:44:08;100133.34;;;36.88;18.75
32875;BME280;40468;42.128;24.750;2022-10-26T07:45:41;100131.09;;;36.85;18.77
32875;BME280;40468;42.128;24.750;2022-10-26T07:47:13;100124.03;;;36.84;18.69
32875;BME280;40468;42.128;24.750;2022-10-26T07:48:45;100127.47;;;36.80;18.89
32875;BME280;40468;42.128;24.750;2022-10-26T07:50:17;100129.78;;;36.64;18.50
32875;BME280;40468;42.128;24.750;2022-10-26T07:51:49;100131.19;;;36.67;18.69
32875;BME280;40468;42.128;24.750;2022-10-26T07:53:21;100122.59;;;36.70;18.98
32875;BME280;40468;42.128;24.750;2022-10-26T07:54:53;100133.81;;;36.43;18.75
32875;BME280;40468;42.128;24.750;2022-10-26T07:56:25;100133.53;;;35.85;19.46
32875;BME280;40468;42.128;24.750;2022-10-26T07:57:58;100125.59;;;35.28;19.80
32875;BME280;40468;42.128;24.750;2022-10-26T07:59:30;100133.75;;;34.96;20.08
32875;BME280;40468;42.128;24.750;2022-10-26T08:01:07;100122.28;;;34.76;20.22
32875;BME280;40468;42.128;24.750;2022-10-26T08:02:39;100127.41;;;34.52;20.52
32875;BME280;40468;42.128;24.750;2022-10-26T08:04:11;100125.84;;;34.38;20.84
32875;BME280;40468;42.128;24.750;2022-10-26T08:05:44;100128.22;;;34.53;20.69
32875;BME280;40468;42.128;24.750;2022-10-26T08:07:16;100125.94;;;34.88;20.61
32875;BME280;40468;42.128;24.750;2022-10-26T08:08:48;100112.63;;;35.12;20.23
32875;BME280;40468;42.128;24.750;2022-10-26T08:10:21;100122.34;;;35.19;20.17
32875;BME280;40468;42.128;24.750;2022-10-26T08:11:52;100107.91;;;34.75;20.56
32875;BME280;40468;42.128;24.750;2022-10-26T08:13:25;100119.41;;;34.71;20.49